createdAt,value
2023-04-02T00:02:22.943Z,93535.00
2023-04-02T00:05:20.573Z,93540.03
2023-04-02T00:07:49.917Z,93541.22
2023-04-02T00:10:35.109Z,93540.03
2023-04-02T00:13:11.141Z,93554.38
2023-04-02T00:15:39.495Z,93562.56
2023-04-02T00:18:07.290Z,93564.09
2023-04-02T00:20:40.819Z,93560.63
2023-04-02T00:23:11.448Z,93552.44
2023-04-02T00:25:45.759Z,93558.28
2023-04-02T00:28:15.356Z,93554.78
2023-04-02T00:30:51.198Z,93556.72
2023-04-02T00:33:21.029Z,93561.00
2023-04-02T00:35:50.825Z,93555.91
2023-04-02T00:38:30.090Z,93551.25
2023-04-02T00:40:59.821Z,93553.16
2023-04-02T00:43:30.608Z,93562.44
2023-04-02T00:46:01.362Z,93558.56
2023-04-02T00:48:31.409Z,93553.91
2023-04-02T00:51:28.376Z,93550.00
2023-04-02T00:53:58.152Z,93545.31
2023-04-02T00:56:40.875Z,93552.56
2023-04-02T00:59:25.031Z,93552.91
2023-04-02T01:02:11.290Z,93555.22
2023-04-02T01:04:38.806Z,93552.94
2023-04-02T01:07:10.564Z,93560.72
2023-04-02T01:09:40.165Z,93559.97
2023-04-02T01:12:33.050Z,93562.28
2023-04-02T01:15:24.626Z,93563.44
2023-04-02T01:18:33.303Z,93562.69
2023-04-02T01:21:07.175Z,93555.28
2023-04-02T01:23:42.932Z,93556.47
2023-04-02T01:26:09.616Z,93558.44
2023-04-02T01:29:00.962Z,93552.59
2023-04-02T01:31:29.806Z,93553.38
2023-04-02T01:33:57.053Z,93557.66
2023-04-02T01:36:41.957Z,93559.97
2023-04-02T01:39:26.930Z,93558.03
2023-04-02T01:42:15.959Z,93555.31
2023-04-02T01:44:52.958Z,93559.19
2023-04-02T01:47:25.575Z,93566.16
2023-04-02T01:50:21.030Z,93566.16
2023-04-02T01:52:55.600Z,93561.56
2023-04-02T01:55:47.237Z,93570.50
2023-04-02T01:58:19.745Z,93571.63
2023-04-02T02:01:12.307Z,93572.38
2023-04-02T02:03:42.218Z,93571.25
2023-04-02T02:06:14.762Z,93577.03
2023-04-02T02:08:58.448Z,93577.81
2023-04-02T02:11:28.988Z,93570.41
2023-04-02T02:14:00.353Z,93573.94
2023-04-02T02:16:29.526Z,93582.81
2023-04-02T02:19:00.901Z,93582.84
2023-04-02T02:21:47.051Z,93579.38
2023-04-02T02:24:26.728Z,93585.97
2023-04-02T02:27:22.719Z,93588.69
2023-04-02T02:30:09.796Z,93589.81
2023-04-02T02:32:39.693Z,93595.66
2023-04-02T02:35:22.159Z,93596.03
2023-04-02T02:38:02.502Z,93594.13
2023-04-02T02:40:40.830Z,93602.56
2023-04-02T02:43:12.504Z,93597.09
2023-04-02T02:45:41.469Z,93597.13
2023-04-02T02:48:13.791Z,93602.19
2023-04-02T02:50:41.880Z,93602.22
2023-04-02T02:53:24.373Z,93601.44
2023-04-02T02:55:57.701Z,93603.41
2023-04-02T02:58:32.004Z,93607.69
2023-04-02T03:01:06.820Z,93601.81
2023-04-02T03:03:36.429Z,93599.50
2023-04-02T03:06:10.748Z,93602.59
2023-04-02T03:08:46.577Z,93607.34
2023-04-02T03:11:43.013Z,93607.66
2023-04-02T03:14:32.704Z,93610.00
2023-04-02T03:17:12.236Z,93610.06
2023-04-02T03:19:50.556Z,93612.00
2023-04-02T03:22:32.229Z,93613.44
2023-04-02T03:25:04.976Z,93615.44
2023-04-02T03:27:39.989Z,93615.38
2023-04-02T03:30:16.186Z,93619.31
2023-04-02T03:32:47.177Z,93622.78
2023-04-02T03:35:46.580Z,93621.59
2023-04-02T03:38:23.615Z,93621.16
2023-04-02T03:41:02.532Z,93620.03
2023-04-02T03:43:57.314Z,93634.41
2023-04-02T03:46:47.305Z,93622.75
2023-04-02T03:49:20.484Z,93627.34
2023-04-02T03:52:12.278Z,93635.53
2023-04-02T03:54:41.174Z,93638.97
2023-04-02T03:57:32.068Z,93637.41
2023-04-02T04:00:19.937Z,93638.16
2023-04-02T04:02:59.988Z,93640.50
2023-04-02T04:05:35.509Z,93649.84
2023-04-02T04:08:06.560Z,93649.03
2023-04-02T04:10:35.556Z,93654.50
2023-04-02T04:13:16.280Z,93651.38
2023-04-02T04:15:46.158Z,93652.91
2023-04-02T04:18:24.034Z,93654.81
2023-04-02T04:20:57.004Z,93662.19
2023-04-02T04:26:31.321Z,93665.25
2023-04-02T04:29:15.684Z,93666.78
2023-04-02T04:31:50.769Z,93674.94
2023-04-02T04:34:22.946Z,93671.38
2023-04-02T04:36:54.803Z,93671.03
2023-04-02T04:39:43.074Z,93681.06
2023-04-02T04:42:21.086Z,93686.09
2023-04-02T04:45:08.014Z,93685.28
2023-04-02T04:47:57.315Z,93693.75
2023-04-02T04:50:33.352Z,93690.28
2023-04-02T04:53:17.435Z,93699.66
2023-04-02T04:55:45.795Z,93697.69
2023-04-02T04:58:24.985Z,93704.25
2023-04-02T05:01:09.269Z,93702.69
2023-04-02T05:03:49.501Z,93715.06
2023-04-02T05:07:04.951Z,93707.56
2023-04-02T05:09:36.162Z,93713.38
2023-04-02T05:12:43.821Z,93716.13
2023-04-02T05:15:20.859Z,93719.22
2023-04-02T05:18:12.210Z,93718.03
2023-04-02T05:20:57.765Z,93726.94
2023-04-02T05:23:27.417Z,93727.00
2023-04-02T05:25:56.113Z,93724.69
2023-04-02T05:28:34.645Z,93724.38
2023-04-02T05:31:12.263Z,93733.38
2023-04-02T05:33:40.633Z,93733.03
2023-04-02T05:36:18.744Z,93735.03
2023-04-02T05:38:51.178Z,93733.88
2023-04-02T05:41:36.900Z,93745.59
2023-04-02T05:44:15.600Z,93741.41
2023-04-02T05:46:49.792Z,93748.44
2023-04-02T05:49:33.448Z,93753.22
2023-04-02T05:52:03.649Z,93758.66
2023-04-02T05:54:54.630Z,93765.63
2023-04-02T05:57:42.422Z,93760.59
2023-04-02T06:00:20.359Z,93760.31
2023-04-02T06:02:56.555Z,93766.06
2023-04-02T06:05:28.955Z,93767.66
2023-04-02T06:08:03.374Z,93766.19
2023-04-02T06:10:34.235Z,93770.50
2023-04-02T06:13:08.678Z,93780.59
2023-04-02T06:15:42.330Z,93777.81
2023-04-02T06:18:24.421Z,93774.75
2023-04-02T06:20:52.657Z,93783.78
2023-04-02T06:23:32.762Z,93788.44
2023-04-02T06:26:29.015Z,93791.25
2023-04-02T06:29:02.654Z,93789.38
2023-04-02T06:31:50.711Z,93795.53
2023-04-02T06:34:22.671Z,93795.91
2023-04-02T06:37:11.923Z,93796.31
2023-04-02T06:39:38.603Z,93799.38
2023-04-02T06:42:10.924Z,93802.19
2023-04-02T06:44:56.377Z,93801.47
2023-04-02T06:47:47.268Z,93817.38
2023-04-02T06:50:31.339Z,93813.19
2023-04-02T06:53:06.398Z,93815.94
2023-04-02T06:55:49.718Z,93818.72
2023-04-02T06:58:21.631Z,93822.25
2023-04-02T07:00:50.718Z,93819.97
2023-04-02T07:03:31.717Z,93834.72
2023-04-02T07:06:03.997Z,93836.75
2023-04-02T07:08:32.627Z,93840.28
2023-04-02T07:10:59.652Z,93839.13
2023-04-02T07:13:27.124Z,93838.34
2023-04-02T07:15:55.274Z,93848.09
2023-04-02T07:18:32.217Z,93843.03
2023-04-02T07:21:01.877Z,93846.94
2023-04-02T07:23:29.040Z,93846.16
2023-04-02T07:25:57.021Z,93840.34
2023-04-02T07:28:24.209Z,93849.28
2023-04-02T07:30:51.726Z,93859.44
2023-04-02T07:33:22.132Z,93870.72
2023-04-02T07:35:50.060Z,93860.19
2023-04-02T07:38:16.804Z,93860.19
2023-04-02T07:40:43.522Z,93859.00
2023-04-02T07:43:10.825Z,93872.59
2023-04-02T07:45:38.035Z,93864.78
2023-04-02T07:48:10.581Z,93877.66
2023-04-02T07:50:37.304Z,93871.72
2023-04-02T07:53:04.440Z,93874.41
2023-04-02T07:55:31.279Z,93875.88
2023-04-02T07:57:59.727Z,93880.56
2023-04-02T08:00:28.370Z,93885.59
2023-04-02T08:02:55.513Z,93896.53
2023-04-02T08:05:22.697Z,93898.56
2023-04-02T08:07:57.136Z,93899.66
2023-04-02T08:10:24.278Z,93902.47
2023-04-02T08:12:51.139Z,93899.31
2023-04-02T08:15:18.719Z,93910.22
2023-04-02T08:17:46.419Z,93907.44
2023-04-02T08:20:19.154Z,93900.41
2023-04-02T08:22:46.829Z,93913.69
2023-04-02T08:25:14.086Z,93913.72
2023-04-02T08:27:41.192Z,93918.41
2023-04-02T08:30:09.631Z,93914.91
2023-04-02T08:32:36.459Z,93929.34
2023-04-02T08:35:03.278Z,93936.81
2023-04-02T08:37:29.974Z,93934.91
2023-04-02T08:39:56.737Z,93941.53
2023-04-02T08:42:34.540Z,93941.47
2023-04-02T08:45:30.708Z,93943.47
2023-04-02T08:47:59.918Z,93945.78
2023-04-02T08:50:41.255Z,93940.00
2023-04-02T08:53:16.649Z,93941.53
2023-04-02T08:55:55.767Z,93946.94
2023-04-02T08:58:46.935Z,93951.16
2023-04-02T09:01:38.538Z,93962.13
2023-04-02T09:04:13.718Z,93962.84
2023-04-02T09:06:41.990Z,93961.25
2023-04-02T09:09:09.036Z,93969.00
2023-04-02T09:11:49.242Z,93967.75
2023-04-02T09:14:49.188Z,93965.81
2023-04-02T09:17:20.858Z,93969.38
2023-04-02T09:20:13.179Z,93969.00
2023-04-02T09:22:40.196Z,93976.38
2023-04-02T09:25:14.186Z,93972.09
2023-04-02T09:27:40.971Z,93974.81
2023-04-02T09:30:27.528Z,93970.88
2023-04-02T09:32:55.271Z,93973.59
2023-04-02T09:35:26.655Z,93979.19
2023-04-02T09:38:23.003Z,93990.88
2023-04-02T09:41:07.055Z,93995.56
2023-04-02T09:43:36.404Z,93993.94
2023-04-02T09:46:06.252Z,93990.00
2023-04-02T09:48:34.559Z,93997.41
2023-04-02T09:51:12.764Z,94004.09
2023-04-02T09:53:42.577Z,94007.19
2023-04-02T09:56:16.925Z,94009.97
2023-04-02T09:58:45.294Z,94004.19
2023-04-02T10:01:28.942Z,94008.19
2023-04-02T10:03:56.416Z,94014.84
2023-04-02T10:06:23.188Z,94023.06
2023-04-02T10:08:49.912Z,94029.69
2023-04-02T10:11:46.343Z,94039.03
2023-04-02T10:14:21.625Z,94039.00
2023-04-02T10:16:55.987Z,94044.06
2023-04-02T10:19:32.434Z,94045.25
2023-04-02T10:22:03.896Z,94053.06
2023-04-02T10:24:30.639Z,94056.16
2023-04-02T10:27:22.828Z,94057.75
2023-04-02T10:30:02.259Z,94062.41
2023-04-02T10:32:51.135Z,94055.78
2023-04-02T10:35:23.356Z,94064.78
2023-04-02T10:38:14.050Z,94061.66
2023-04-02T10:40:49.237Z,94064.38
2023-04-02T10:44:06.157Z,94060.41
2023-04-02T10:46:58.091Z,94059.84
2023-04-02T10:49:35.579Z,94058.84
2023-04-02T10:52:13.669Z,94061.97
2023-04-02T10:54:43.204Z,94061.38
2023-04-02T10:57:22.323Z,94067.72
2023-04-02T10:59:55.091Z,94069.69
2023-04-02T11:03:15.893Z,94080.72
2023-04-02T11:05:47.312Z,94087.38
2023-04-02T11:08:22.603Z,94078.81
2023-04-02T11:11:05.505Z,94076.41
2023-04-02T11:13:58.260Z,94084.22
2023-04-02T11:16:25.912Z,94086.97
2023-04-02T11:19:17.573Z,94090.50
2023-04-02T11:21:58.727Z,94092.06
2023-04-02T11:24:37.103Z,94101.03
2023-04-02T11:27:10.002Z,94097.13
2023-04-02T11:29:49.238Z,94101.81
2023-04-02T11:32:27.574Z,94106.13
2023-04-02T11:35:05.839Z,94096.72
2023-04-02T11:37:40.175Z,94101.81
2023-04-02T11:40:15.683Z,94104.94
2023-04-02T11:42:47.124Z,94104.56
2023-04-02T11:45:28.863Z,94108.06
2023-04-02T11:48:01.933Z,94115.06
2023-04-02T11:50:42.724Z,94115.06
2023-04-02T11:53:12.456Z,94118.97
2023-04-02T11:55:42.180Z,94122.84
2023-04-02T11:58:33.466Z,94120.88
2023-04-02T12:01:09.194Z,94122.44
2023-04-02T12:04:13.508Z,94128.28
2023-04-02T12:06:47.238Z,94134.59
2023-04-02T12:09:24.830Z,94124.06
2023-04-02T12:11:54.432Z,94129.50
2023-04-02T12:14:33.203Z,94138.88
2023-04-02T12:17:00.453Z,94132.22
2023-04-02T12:19:30.576Z,94136.50
2023-04-02T12:21:59.450Z,94132.56
2023-04-02T12:24:31.338Z,94134.91
2023-04-02T12:27:18.321Z,94133.28
2023-04-02T12:29:45.046Z,94139.47
2023-04-02T12:32:25.949Z,94136.25
2023-04-02T12:34:55.115Z,94143.28
2023-04-02T12:37:27.957Z,94145.59
2023-04-02T12:40:07.069Z,94144.09
2023-04-02T12:42:36.325Z,94147.72
2023-04-02T12:45:05.440Z,94154.38
2023-04-02T12:47:32.902Z,94154.78
2023-04-02T12:50:01.809Z,94155.94
2023-04-02T12:52:29.472Z,94157.13
2023-04-02T12:55:02.553Z,94159.47
2023-04-02T12:57:29.325Z,94166.91
2023-04-02T13:00:01.518Z,94163.41
2023-04-02T13:02:31.022Z,94169.28
2023-04-02T13:05:01.289Z,94173.53
2023-04-02T13:07:33.588Z,94168.50
2023-04-02T13:10:21.763Z,94173.16
2023-04-02T13:12:48.530Z,94176.28
2023-04-02T13:15:23.820Z,94178.25
2023-04-02T13:18:12.319Z,94179.81
2023-04-02T13:20:43.557Z,94180.19
2023-04-02T13:23:28.765Z,94187.66
2023-04-02T13:26:14.800Z,94187.25
2023-04-02T13:28:42.161Z,94187.25
2023-04-02T13:31:16.767Z,94197.00
2023-04-02T13:33:43.502Z,94193.47
2023-04-02T13:36:14.644Z,94195.00
2023-04-02T13:38:41.753Z,94206.34
2023-04-02T13:41:21.434Z,94198.97
2023-04-02T13:43:52.077Z,94205.97
2023-04-02T13:46:24.651Z,94202.88
2023-04-02T13:48:53.062Z,94205.97
2023-04-02T13:51:22.773Z,94205.19
2023-04-02T13:53:54.459Z,94209.88
2023-04-02T13:56:22.897Z,94212.56
2023-04-02T13:58:49.534Z,94215.28
2023-04-02T14:01:16.251Z,94217.19
2023-04-02T14:03:43.346Z,94215.63
2023-04-02T14:06:35.863Z,94215.72
2023-04-02T14:09:31.966Z,94210.25
2023-04-02T14:12:17.251Z,94211.84
2023-04-02T14:15:02.757Z,94213.78
2023-04-02T14:17:47.419Z,94209.09
2023-04-02T14:20:39.215Z,94212.63
2023-04-02T14:23:29.734Z,94207.53
2023-04-02T14:26:15.356Z,94215.31
2023-04-02T14:29:01.528Z,94219.59
2023-04-02T14:31:37.319Z,94222.28
2023-04-02T14:34:32.948Z,94224.50
2023-04-02T14:37:32.587Z,94222.88
2023-04-02T14:40:02.335Z,94221.31
2023-04-02T14:42:40.753Z,94221.34
2023-04-02T14:45:10.463Z,94223.78
2023-04-02T14:47:48.022Z,94223.88
2023-04-02T14:50:23.596Z,94225.50
2023-04-02T14:52:56.863Z,94233.31
2023-04-02T14:55:34.542Z,94241.88
2023-04-02T14:58:05.427Z,94234.09
2023-04-02T15:00:45.827Z,94241.09
2023-04-02T15:03:21.341Z,94245.75
2023-04-02T15:05:53.915Z,94252.00
2023-04-02T15:08:35.162Z,94252.78
2023-04-02T15:11:12.231Z,94252.03
2023-04-02T15:14:00.780Z,94248.16
2023-04-02T15:16:27.874Z,94252.03
2023-04-02T15:18:59.562Z,94260.25
2023-04-02T15:21:49.862Z,94255.56
2023-04-02T15:24:40.985Z,94255.91
2023-04-02T15:27:33.027Z,94256.63
2023-04-02T15:30:14.978Z,94259.72
2023-04-02T15:32:43.278Z,94264.00
2023-04-02T15:35:28.768Z,94266.38
2023-04-02T15:38:01.501Z,94271.47
2023-04-02T15:40:34.093Z,94270.31
2023-04-02T15:43:19.849Z,94279.69
2023-04-02T15:45:55.550Z,94284.03
2023-04-02T15:48:59.531Z,94279.78
2023-04-02T15:51:41.240Z,94274.69
2023-04-02T15:54:07.803Z,94285.22
2023-04-02T15:57:09.862Z,94293.41
2023-04-02T15:59:55.170Z,94290.25
2023-04-02T16:02:41.155Z,94288.19
2023-04-02T16:05:19.949Z,94293.91
2023-04-02T16:08:05.016Z,94304.38
2023-04-02T16:10:42.608Z,94300.38
2023-04-02T16:13:19.262Z,94298.38
2023-04-02T16:15:52.142Z,94305.13
2023-04-02T16:18:38.177Z,94298.81
2023-04-02T16:21:05.005Z,94303.75
2023-04-02T16:23:36.495Z,94309.47
2023-04-02T16:26:30.972Z,94310.25
2023-04-02T16:29:12.209Z,94321.16
2023-04-02T16:31:58.977Z,94322.22
2023-04-02T16:35:01.823Z,94325.38
2023-04-02T16:37:50.302Z,94326.88
2023-04-02T16:40:37.675Z,94333.44
2023-04-02T16:43:24.694Z,94335.50
2023-04-02T16:46:28.367Z,94335.97
2023-04-02T16:49:17.436Z,94338.28
2023-04-02T16:52:08.040Z,94347.88
2023-04-02T16:55:03.755Z,94341.22
2023-04-02T16:57:52.353Z,94350.16
2023-04-02T17:00:25.236Z,94350.41
2023-04-02T17:03:11.258Z,94354.28
2023-04-02T17:06:22.543Z,94359.28
2023-04-02T17:09:01.936Z,94365.44
2023-04-02T17:11:44.360Z,94368.72
2023-04-02T17:14:32.728Z,94379.28
2023-04-02T17:17:03.635Z,94386.94
2023-04-02T17:19:32.277Z,94386.59
2023-04-02T17:22:04.529Z,94384.38
2023-04-02T17:24:41.628Z,94391.06
2023-04-02T17:27:26.807Z,94397.63
2023-04-02T17:30:00.039Z,94398.34
2023-04-02T17:32:33.191Z,94406.13
2023-04-02T17:35:17.201Z,94408.50
2023-04-02T17:38:07.548Z,94409.34
2023-04-02T17:40:59.022Z,94416.03
2023-04-02T17:43:41.326Z,94419.13
2023-04-02T17:46:16.813Z,94417.88
2023-04-02T17:48:50.590Z,94425.22
2023-04-02T17:51:30.346Z,94426.00
2023-04-02T17:54:20.441Z,94431.47
2023-04-02T17:56:58.623Z,94437.19
2023-04-02T17:59:46.662Z,94437.44
2023-04-02T18:02:16.493Z,94446.78
2023-04-02T18:05:27.717Z,94451.84
2023-04-02T18:08:15.853Z,94461.16
2023-04-02T18:10:45.561Z,94456.16
2023-04-02T18:13:27.396Z,94462.28
2023-04-02T18:16:00.238Z,94464.22
2023-04-02T18:18:58.021Z,94468.88
2023-04-02T18:21:30.693Z,94470.06
2023-04-02T18:24:22.201Z,94476.00
2023-04-02T18:26:54.803Z,94481.84
2023-04-02T18:29:27.504Z,94476.81
2023-04-02T18:32:06.307Z,94483.47
2023-04-02T18:34:55.001Z,94491.63
2023-04-02T18:37:39.892Z,94495.50
2023-04-02T18:40:15.621Z,94496.59
2023-04-02T18:43:06.671Z,94500.88
2023-04-02T18:45:51.562Z,94514.75
2023-04-02T18:48:21.157Z,94523.91
2023-04-02T18:50:48.874Z,94524.69
2023-04-02T18:53:18.690Z,94527.72
2023-04-02T18:55:50.110Z,94545.56
2023-04-02T18:58:25.811Z,94536.28
2023-04-02T19:00:53.576Z,94543.25
2023-04-02T19:03:28.003Z,94548.53
2023-04-02T19:06:19.161Z,94552.78
2023-04-02T19:08:54.883Z,94539.72
2023-04-02T19:11:29.354Z,94550.59
2023-04-02T19:14:01.244Z,94552.16
2023-04-02T19:16:49.826Z,94565.88
2023-04-02T19:19:28.289Z,94564.09
2023-04-02T19:22:21.880Z,94568.38
2023-04-02T19:25:03.211Z,94571.31
2023-04-02T19:27:50.287Z,94582.38
2023-04-02T19:30:38.268Z,94594.81
2023-04-02T19:33:42.671Z,94600.69
2023-04-02T19:36:24.391Z,94612.75
2023-04-02T19:39:28.747Z,94601.97
2023-04-02T19:42:12.898Z,94612.84
2023-04-02T19:44:44.660Z,94608.22
2023-04-02T19:47:11.630Z,94608.03
2023-04-02T19:49:38.328Z,94613.38
2023-04-02T19:52:05.318Z,94614.84
2023-04-02T19:54:32.005Z,94618.44
2023-04-02T19:57:00.035Z,94623.44
2023-04-02T19:59:27.233Z,94628.09
2023-04-02T20:01:53.847Z,94631.25
2023-04-02T20:04:20.746Z,94635.47
2023-04-02T20:06:47.420Z,94642.88
2023-04-02T20:09:14.137Z,94639.63
2023-04-02T20:11:40.961Z,94641.84
2023-04-02T20:14:07.631Z,94653.66
2023-04-02T20:16:36.592Z,94657.00
2023-04-02T20:19:03.578Z,94651.25
2023-04-02T20:21:37.940Z,94657.09
2023-04-02T20:24:08.260Z,94660.63
2023-04-02T20:26:36.275Z,94672.34
2023-04-02T20:29:03.202Z,94673.88
2023-04-02T20:31:30.039Z,94674.94
2023-04-02T20:33:58.861Z,94681.28
2023-04-02T20:36:25.874Z,94676.63
2023-04-02T20:38:52.730Z,94691.97
2023-04-02T20:41:20.028Z,94690.56
2023-04-02T20:43:46.717Z,94695.50
2023-04-02T20:46:13.772Z,94701.47
2023-04-02T20:48:40.953Z,94695.09
2023-04-02T20:51:10.101Z,94695.94
2023-04-02T20:53:38.088Z,94701.34
2023-04-02T20:56:10.188Z,94695.38
2023-04-02T20:58:38.166Z,94709.28
2023-04-02T21:01:19.370Z,94707.97
2023-04-02T21:03:46.448Z,94717.88
2023-04-02T21:06:21.950Z,94718.22
2023-04-02T21:08:49.604Z,94721.59
2023-04-02T21:11:17.033Z,94715.06
2023-04-02T21:13:45.462Z,94715.06
2023-04-02T21:16:21.000Z,94721.94
2023-04-02T21:18:49.700Z,94725.22
2023-04-02T21:21:17.128Z,94734.91
2023-04-02T21:23:45.173Z,94731.22
2023-04-02T21:26:15.071Z,94735.94
2023-04-02T21:28:42.687Z,94743.16
2023-04-02T21:31:12.454Z,94741.69
2023-04-02T21:33:44.398Z,94744.25
2023-04-02T21:36:17.123Z,94743.25
2023-04-02T21:38:49.241Z,94747.09
2023-04-02T21:41:22.356Z,94742.00
2023-04-02T21:43:50.073Z,94755.09
2023-04-02T21:46:19.375Z,94750.91
2023-04-02T21:48:46.791Z,94741.75
2023-04-02T21:51:18.908Z,94746.72
2023-04-02T21:53:46.213Z,94745.25
2023-04-02T21:56:18.702Z,94742.09
2023-04-02T21:58:47.204Z,94748.25
2023-04-02T22:01:26.692Z,94759.50
2023-04-02T22:03:55.428Z,94763.28
2023-04-02T22:06:23.718Z,94763.97
2023-04-02T22:08:59.715Z,94766.81
2023-04-02T22:11:29.849Z,94775.84
2023-04-02T22:13:56.911Z,94772.06
2023-04-02T22:16:26.614Z,94784.59
2023-04-02T22:18:55.656Z,94777.34
2023-04-02T22:21:23.044Z,94775.50
2023-04-02T22:23:49.796Z,94782.22
2023-04-02T22:26:17.751Z,94789.88
2023-04-02T22:28:44.440Z,94786.00
2023-04-02T22:31:17.141Z,94782.81
2023-04-02T22:33:44.953Z,94782.06
2023-04-02T22:36:12.724Z,94788.56
2023-04-02T22:38:39.568Z,94796.81
2023-04-02T22:41:14.692Z,94788.00
2023-04-02T22:43:44.059Z,94794.06
2023-04-02T22:46:13.246Z,94799.03
2023-04-02T22:48:40.521Z,94795.16
2023-04-02T22:51:08.440Z,94795.84
2023-04-02T22:53:36.634Z,94789.56
2023-04-02T22:56:06.987Z,94798.81
2023-04-02T22:58:34.819Z,94795.31
2023-04-02T23:01:06.843Z,94799.25
2023-04-02T23:03:33.789Z,94797.09
2023-04-02T23:06:02.486Z,94798.91
2023-04-02T23:08:29.156Z,94799.31
2023-04-02T23:11:14.406Z,94804.34
2023-04-02T23:13:41.881Z,94799.72
2023-04-02T23:16:11.800Z,94800.94
2023-04-02T23:18:39.674Z,94802.69
2023-04-02T23:21:06.570Z,94804.22
2023-04-02T23:23:33.902Z,94807.69
2023-04-02T23:26:08.821Z,94811.41
2023-04-02T23:28:36.792Z,94804.09
2023-04-02T23:31:05.374Z,94814.34
2023-04-02T23:33:32.451Z,94809.75
2023-04-02T23:35:59.222Z,94810.88
2023-04-02T23:38:27.010Z,94814.97
2023-04-02T23:40:53.688Z,94816.78
2023-04-02T23:43:20.363Z,94819.16
2023-04-02T23:45:50.707Z,94822.28
2023-04-02T23:48:17.596Z,94821.13
2023-04-02T23:50:45.413Z,94826.03
2023-04-02T23:53:12.800Z,94833.84
2023-04-02T23:55:39.905Z,94823.97
2023-04-02T23:58:06.833Z,94831.19
